Wetterdaten: aktuell Samstag, 13.02.2016 11:12
Datum Zeit Temperatur Feuchte Luftdruck Regen Wind Richtung Richtung Taupunkt Windchill
13.02.2016 11:12 3,2 C 85 % 989,9 hPa 0,0 l/m 0,0 km/h (0 Bft) - - 0 0,9 C 3,2 C
13.02.2016 10:12 1,6 C 88 % 992,1 hPa 0,0 l/m 0,0 km/h (0 Bft) - - 0 -0,2 C 1,6 C
13.02.2016 09:12 0,3 C 89 % 992,2 hPa 0,0 l/m 0,0 km/h (0 Bft) - - 0 -1,3 C 0,3 C
13.02.2016 08:12 0,1 C 88 % 993,2 hPa 0,0 l/m 0,0 km/h (0 Bft) - - 0 -1,6 C 0,1 C
13.02.2016 07:12 -0,4 C 88 % 993,3 hPa 0,0 l/m 0,0 km/h (0 Bft) - - 0 -2,1 C -0,4 C
13.02.2016 06:12 -0,5 C 87 % 993,3 hPa 0,0 l/m 0,0 km/h (0 Bft) - - 0 -2,4 C -0,5 C
13.02.2016 05:12 0,3 C 87 % 994,2 hPa 0,0 l/m 0,0 km/h (0 Bft) - - 0 -1,6 C 0,3 C
13.02.2016 04:12 0,5 C 87 % 994,2 hPa 0,0 l/m 0,0 km/h (0 Bft) - - 0 -1,4 C 0,5 C
13.02.2016 03:12 0,8 C 86 % 995,2 hPa 0,0 l/m 0,0 km/h (0 Bft) - - 0 -1,3 C 0,8 C
13.02.2016 02:12 0,9 C 86 % 995,2 hPa 0,0 l/m 0,0 km/h (0 Bft) - - 0 -1,2 C 0,9 C
13.02.2016 01:12 0,8 C 85 % 995,2 hPa 0,0 l/m 0,0 km/h (0 Bft) - - 0 -1,4 C 0,8 C
13.02.2016 00:12 0,9 C 84 % 996,2 hPa 0,0 l/m 0,0 km/h (0 Bft) - - 0 -1,5 C 0,9 C
12.02.2016 23:12 1,1 C 83 % 996,2 hPa 0,0 l/m 0,0 km/h (0 Bft) - - 0 -1,5 C 1,1 C
12.02.2016 22:12 1,3 C 82 % 996,2 hPa 0,0 l/m 0,0 km/h (0 Bft) - - 0 -1,4 C 1,3 C
12.02.2016 21:12 1,8 C 81 % 996,2 hPa 0,0 l/m 0,0 km/h (0 Bft) - - 0 -1,1 C 1,8 C
12.02.2016 20:12 2,1 C 79 % 996,1 hPa 0,0 l/m 0,0 km/h (0 Bft) - - 0 -1,2 C 2,1 C
12.02.2016 19:12 2,8 C 77 % 996,1 hPa 0,0 l/m 0,0 km/h (0 Bft) - - 0 -0,8 C 2,8 C
12.02.2016 18:12 3,4 C 78 % 996,0 hPa 0,0 l/m 0,0 km/h (0 Bft) - - 0 -0,1 C 3,4 C
12.02.2016 17:12 4,6 C 75 % 995,9 hPa 0,0 l/m 0,0 km/h (0 Bft) - - 0 0,6 C 4,6 C
12.02.2016 16:12 5,4 C 74 % 996,9 hPa 0,0 l/m 0,0 km/h (0 Bft) - - 0 1,1 C 5,4 C
12.02.2016 15:12 6,0 C 75 % 996,8 hPa 0,0 l/m 0,0 km/h (0 Bft) - - 0 1,9 C 6,0 C
12.02.2016 14:12 5,2 C 79 % 997,9 hPa 0,0 l/m 0,0 km/h (0 Bft) - - 0 1,9 C 5,2 C
12.02.2016 13:12 5,3 C 82 % 998,9 hPa 0,0 l/m 0,0 km/h (0 Bft) - - 0 2,5 C 5,3 C
12.02.2016 12:12 4,3 C 85 % 1000,0 hPa 0,0 l/m 0,0 km/h (0 Bft) - - 0 2,0 C 4,3 C
12.02.2016 12:00 4,2 C 86 % 1000,1 hPa 0,0 l/m 0,0 km/h (0 Bft) - - 0 2,1 C 4,2 C
_ Min-Zeit 06:18 15:30 11:12 - 12:00 - - 06:12 06:18
Minimum _ -0,6 C 74 % 989,9 hPa - 0,0 km/h (0 Bft) - - -2,4 C -0,6 C
_ Max-Zeit 15:27 07:03 12:00 12:00 12:00 - - 13:03 15:27
Maximum _ 6,2 C 89 % 1000,1 hPa 0,0 l/m 0,0 km/h
- - (0 Bft)
- - 2,6 C 6,2 C
Durchschnitt _ 2,3 C 83 % 995,8 hPa #0,0 l/m 0,0 km/h (0 Bft) - - - -0,3 C 2,3 C